Évreux-Fauville (BA 105) Air Base

Airport
ICAO code: 
LFOE
Summary
ICAO Region: 
EUR
Territory: 
Location: 
, Haute-Normandie
Serving: 
Evreux
Elevation: 
464 ft
Coordinates: 
Aerial View: 
49° 1' 43.208" N, 1° 13' 11.51" E
Metar
Observation
LFOE 240730Z AUTO 05003KT 3300 BR NSC M02/M02 Q1031 BECMG 9999 NSW
Station
Evreux
Date/Time
2022-01-24 07:30:00
Wind direction
50°
Wind speed
03 kts
Lowest cloud amount
nil significant cloud
Temperature
-2°C
Dew point
-2°C
Humidity
100%
QNH
1031 hPa
Weather condition
n/a

Runways

Designator Length Width Surface Rops
4/22 2995 45 ASP No/No
Airport map: 
Aerial View: 

SKYbrary Partners:

Safety knowledge contributed by: